createdAt,value
2023-12-09T00:01:11.693Z,4.13
2023-12-09T00:11:14.592Z,4.17
2023-12-09T00:21:19.077Z,4.17
2023-12-09T00:31:21.916Z,4.20
2023-12-09T00:41:25.869Z,4.21
2023-12-09T00:51:28.571Z,4.22
2023-12-09T01:01:34.640Z,4.23
2023-12-09T01:11:37.319Z,4.24
2023-12-09T01:21:41.302Z,4.22
2023-12-09T01:31:43.901Z,4.24
2023-12-09T01:41:47.954Z,4.28
2023-12-09T01:51:50.772Z,4.25
2023-12-09T02:01:55.223Z,4.31
2023-12-09T02:12:07.473Z,4.31
2023-12-09T02:22:11.577Z,4.35
2023-12-09T02:32:18.254Z,4.34
2023-12-09T02:42:21.096Z,4.38
2023-12-09T02:52:25.233Z,4.40
2023-12-09T03:02:28.267Z,4.33
2023-12-09T03:12:32.677Z,4.32
2023-12-09T03:22:35.275Z,4.32
2023-12-09T03:32:41.253Z,4.26
2023-12-09T03:42:43.875Z,4.24
2023-12-09T03:52:47.865Z,4.28
2023-12-09T04:02:50.474Z,4.30
2023-12-09T04:12:54.385Z,4.31
2023-12-09T04:22:56.989Z,4.31
2023-12-09T04:33:01.228Z,4.30
2023-12-09T04:43:04.855Z,4.23
2023-12-09T04:53:08.900Z,4.27
2023-12-09T05:03:11.925Z,4.33
2023-12-09T05:13:15.919Z,4.36
2023-12-09T05:23:18.478Z,4.43
2023-12-09T05:33:22.552Z,4.47
2023-12-09T05:43:25.284Z,4.49
2023-12-09T05:53:29.317Z,4.43
2023-12-09T06:03:32.041Z,4.46
2023-12-09T06:13:36.031Z,4.45
2023-12-09T06:23:39.124Z,4.45
2023-12-09T06:33:43.186Z,4.52
2023-12-09T06:43:45.909Z,4.53
2023-12-09T06:53:49.807Z,4.52
2023-12-09T07:03:55.828Z,4.54
2023-12-09T07:13:59.786Z,4.60
2023-12-09T07:24:02.442Z,4.66
2023-12-09T07:34:06.589Z,4.69
2023-12-09T07:44:09.258Z,4.76
2023-12-09T07:54:13.169Z,4.88
2023-12-09T08:04:16.029Z,4.95
2023-12-09T08:14:19.997Z,4.98
2023-12-09T08:24:22.876Z,5.11
2023-12-09T08:34:26.893Z,5.22
2023-12-09T08:44:29.585Z,5.41
2023-12-09T08:54:33.560Z,5.52
2023-12-09T09:04:36.165Z,5.58
2023-12-09T09:14:40.143Z,5.75
2023-12-09T09:24:42.866Z,5.89
2023-12-09T09:34:47.031Z,6.21
2023-12-09T09:44:58.135Z,6.54
2023-12-09T09:55:03.671Z,6.73
2023-12-09T10:05:06.642Z,7.06
2023-12-09T10:15:12.239Z,7.14
2023-12-09T10:25:22.190Z,7.11
2023-12-09T10:35:26.113Z,7.30
2023-12-09T10:45:30.417Z,7.37
2023-12-09T10:55:34.521Z,7.48
2023-12-09T11:05:45.433Z,7.90
2023-12-09T11:15:49.471Z,8.32
2023-12-09T11:25:52.267Z,8.70
2023-12-09T11:35:58.219Z,9.31
2023-12-09T11:46:00.811Z,9.33
2023-12-09T11:56:06.268Z,9.54
2023-12-09T12:06:09.432Z,9.74
2023-12-09T12:16:14.215Z,9.61
2023-12-09T12:26:16.806Z,9.69
2023-12-09T12:36:20.867Z,9.45
2023-12-09T12:46:23.533Z,9.07
2023-12-09T12:56:28.056Z,9.03
2023-12-09T13:06:30.852Z,9.19
2023-12-09T13:16:34.962Z,8.98
2023-12-09T13:26:45.433Z,8.83
2023-12-09T13:36:48.122Z,8.75
2023-12-09T13:46:52.175Z,8.71
2023-12-09T13:56:54.773Z,8.55
2023-12-09T14:06:58.693Z,8.56
2023-12-09T14:17:01.818Z,8.47
2023-12-09T14:27:06.214Z,8.33
2023-12-09T14:37:08.889Z,8.36
2023-12-09T14:47:14.241Z,8.14
2023-12-09T14:57:16.865Z,8.02
2023-12-09T15:07:20.893Z,7.96
2023-12-09T15:17:23.796Z,7.81
2023-12-09T15:27:29.163Z,7.58
2023-12-09T15:37:31.856Z,7.47
2023-12-09T15:47:35.855Z,7.35
2023-12-09T15:57:38.663Z,7.31
2023-12-09T16:07:44.196Z,7.19
2023-12-09T16:17:48.145Z,7.07
2023-12-09T16:27:52.337Z,7.01
2023-12-09T16:37:55.311Z,6.98
2023-12-09T16:47:59.305Z,6.97
2023-12-09T16:58:02.068Z,6.90
2023-12-09T17:08:06.489Z,6.86
2023-12-09T17:18:10.374Z,6.73
2023-12-09T17:28:14.477Z,6.79
2023-12-09T17:38:17.087Z,6.73
2023-12-09T17:48:21.754Z,6.77
2023-12-09T17:58:24.474Z,6.80
2023-12-09T18:08:29.552Z,6.76
2023-12-09T18:18:32.347Z,6.70
2023-12-09T18:28:38.604Z,6.67
2023-12-09T18:38:41.246Z,6.68
2023-12-09T18:48:45.680Z,6.75
2023-12-09T18:58:49.085Z,6.67
2023-12-09T19:08:53.049Z,6.71
2023-12-09T19:18:55.706Z,6.70
2023-12-09T19:29:02.401Z,6.65
2023-12-09T19:39:05.781Z,6.70
2023-12-09T19:49:09.906Z,6.78
2023-12-09T19:59:12.695Z,6.79
2023-12-09T20:09:16.771Z,7.06
2023-12-09T20:19:20.948Z,7.12
2023-12-09T20:29:25.963Z,7.09
2023-12-09T20:39:28.629Z,7.40
2023-12-09T20:49:32.600Z,7.57
2023-12-09T20:59:35.190Z,7.74
2023-12-09T21:09:40.323Z,7.52
2023-12-09T21:19:44.149Z,7.47
2023-12-09T21:29:48.095Z,7.41
2023-12-09T21:39:51.047Z,7.40
2023-12-09T21:49:55.597Z,7.47
2023-12-09T21:59:58.222Z,7.47
2023-12-09T22:10:02.110Z,7.32
2023-12-09T22:20:05.776Z,7.22
2023-12-09T22:30:11.054Z,7.27
2023-12-09T22:40:14.631Z,7.45
2023-12-09T22:50:18.842Z,7.50
2023-12-09T23:00:33.126Z,7.56
2023-12-09T23:10:37.330Z,7.45
2023-12-09T23:20:39.910Z,7.54
2023-12-09T23:30:43.869Z,7.64
2023-12-09T23:40:46.490Z,7.52
2023-12-09T23:50:50.461Z,7.50
